Time;durP1;ratioP1;P1;durP2;ratioP2;P2;SDS_P1;SDS_P2;PMS_P1;PMS_P2;Temp;Humidity;BMP_temperature;BMP_pressure;BME280_temperature;BME280_humidity;BME280_pressure;Samples;Min_cycle;Max_cycle;Signal;HPM_P1;HPM_P2
2023/04/24 00:02:28;;;;;;;56.35;32.40;;;15.80;99.60;;;;;;5093124;28;20039;-75
2023/04/24 00:05:33;;;;;;;47.00;29.70;;;;;;;;;;5093114;28;20047;-75
2023/04/24 00:08:37;;;;;;;45.47;29.25;;;15.20;98.70;;;;;;5092197;28;20387;-75
2023/04/24 00:11:41;;;;;;;47.03;28.67;;;15.70;98.70;;;;;;5092536;28;20066;-75
2023/04/24 00:14:45;;;;;;;43.58;27.52;;;;;;;;;;5092760;28;20479;-75
2023/04/24 00:17:49;;;;;;;42.80;28.00;;;16.30;98.80;;;;;;5092500;28;20415;-75
2023/04/24 00:20:53;;;;;;;42.15;24.90;;;15.70;98.50;;;;;;5092305;28;20419;-75
2023/04/24 00:23:57;;;;;;;37.28;24.85;;;15.70;98.50;;;;;;5092673;28;20047;-75
2023/04/24 00:27:02;;;;;;;39.30;24.27;;;;;;;;;;5092294;28;20052;-75
2023/04/24 00:30:06;;;;;;;37.13;24.98;;;15.70;98.40;;;;;;5091424;28;20043;-74
2023/04/24 00:33:10;;;;;;;41.75;24.83;;;15.70;98.60;;;;;;5092533;28;20756;-74
2023/04/24 00:36:14;;;;;;;39.17;25.88;;;15.80;98.70;;;;;;5091425;28;20047;-74
2023/04/24 00:39:19;;;;;;;42.55;25.55;;;15.80;98.60;;;;;;5092154;28;20051;-75
2023/04/24 00:42:24;;;;;;;40.75;25.98;;;17.30;99.00;;;;;;5091497;28;20043;-75
2023/04/24 00:45:28;;;;;;;44.92;26.73;;;15.90;99.20;;;;;;5092237;28;20043;-75
2023/04/24 00:48:32;;;;;;;40.53;25.25;;;16.80;99.80;;;;;;5092366;28;20039;-75
2023/04/24 00:51:37;;;;;;;41.40;24.70;;;;;;;;;;5092187;28;20055;-75
2023/04/24 00:54:41;;;;;;;46.67;28.42;;;15.50;99.50;;;;;;5091887;28;20082;-75
2023/04/24 00:57:46;;;;;;;40.35;25.70;;;13.60;99.00;;;;;;5092059;28;20039;-75
2023/04/24 01:00:53;;;;;;;47.97;27.58;;;15.40;99.10;;;;;;5091947;28;20067;-75
2023/04/24 01:03:57;;;;;;;40.40;26.38;;;15.50;98.90;;;;;;5090719;28;20063;-75
2023/04/24 01:07:02;;;;;;;38.50;25.10;;;15.70;98.60;;;;;;5091078;28;20506;-75
2023/04/24 01:10:08;;;;;;;36.53;24.92;;;15.50;98.20;;;;;;5091019;28;20047;-75
2023/04/24 01:13:13;;;;;;;37.03;22.98;;;14.70;98.60;;;;;;5091869;28;20129;-75
2023/04/24 01:16:20;;;;;;;38.58;24.80;;;15.20;99.00;;;;;;5090879;28;20062;-75
2023/04/24 01:19:24;;;;;;;33.90;22.25;;;15.50;98.80;;;;;;5091318;28;20071;-75
2023/04/24 01:22:28;;;;;;;36.15;22.75;;;;;;;;;;5090706;28;20039;-75
2023/04/24 01:25:33;;;;;;;32.35;20.48;;;;;;;;;;5090424;28;20416;-75
2023/04/24 01:28:37;;;;;;;28.23;17.73;;;15.10;98.70;;;;;;5091745;28;20035;-75
2023/04/24 01:31:43;;;;;;;24.33;16.75;;;14.50;98.20;;;;;;5090657;28;20055;-74
2023/04/24 01:34:47;;;;;;;26.00;16.02;;;;;;;;;;5090422;28;20047;-74
2023/04/24 01:37:51;;;;;;;20.70;14.40;;;;;;;;;;5090254;28;20426;-74
2023/04/24 01:40:59;;;;;;;21.75;14.82;;;;;;;;;;5090272;28;20038;-74
2023/04/24 01:44:03;;;;;;;17.80;12.90;;;11.90;97.40;;;;;;5090295;28;20031;-74
2023/04/24 01:47:07;;;;;;;20.77;13.20;;;;;;;;;;5091410;28;20051;-74
2023/04/24 01:50:12;;;;;;;20.23;12.43;;;15.10;97.50;;;;;;5091152;28;20043;-73
2023/04/24 01:53:17;;;;;;;18.33;11.32;;;;;;;;;;5091024;28;20040;-75
2023/04/24 01:56:22;;;;;;;17.33;11.25;;;14.80;97.60;;;;;;5091001;28;20043;-73
2023/04/24 01:59:28;;;;;;;19.73;11.05;;;13.80;97.20;;;;;;5089998;28;20513;-74
2023/04/24 02:02:32;;;;;;;16.23;11.02;;;14.80;97.60;;;;;;5090800;28;20031;-74
2023/04/24 02:05:36;;;;;;;16.45;11.73;;;14.90;97.50;;;;;;5090923;28;20046;-74
2023/04/24 02:08:41;;;;;;;15.15;11.50;;;;;;;;;;5090118;28;20043;-74
2023/04/24 02:11:45;;;;;;;15.73;10.85;;;15.30;97.50;;;;;;5089893;28;20039;-74
2023/04/24 02:14:50;;;;;;;16.15;11.75;;;;;;;;;;5090187;28;20043;-75
2023/04/24 02:17:54;;;;;;;18.75;11.70;;;;;;;;;;5090918;28;20047;-75
2023/04/24 02:20:58;;;;;;;16.42;11.88;;;;;;;;;;5090711;28;20055;-75
2023/04/24 02:24:02;;;;;;;18.80;13.15;;;14.80;98.10;;;;;;5091005;28;20652;-75
2023/04/24 02:27:07;;;;;;;24.67;14.00;;;;;;;;;;5090967;28;20060;-75
2023/04/24 02:30:11;;;;;;;20.48;12.95;;;13.60;98.00;;;;;;5090891;28;20043;-75
2023/04/24 02:33:18;;;;;;;21.35;13.93;;;;;;;;;;5092574;28;20157;-75
2023/04/24 02:36:21;;;;;;;25.77;14.90;;;15.60;98.90;;;;;;5094838;28;20068;-75
2023/04/24 02:39:26;;;;;;;24.40;16.35;;;;;;;;;;5093601;28;20058;-75
2023/04/24 02:42:30;;;;;;;24.27;15.65;;;;;;;;;;5094486;28;20042;-75
2023/04/24 02:45:35;;;;;;;25.45;16.42;;;;;;;;;;5093640;28;20494;-75
2023/04/24 02:48:39;;;;;;;24.90;17.58;;;13.90;99.90;;;;;;5093799;28;20039;-75
2023/04/24 02:51:44;;;;;;;35.30;19.83;;;;;;;;;;5094227;28;20046;-75
2023/04/24 02:54:48;;;;;;;27.98;18.67;;;;;;;;;;5094112;28;20495;-75
2023/04/24 02:57:51;;;;;;;29.73;19.83;;;14.10;99.90;;;;;;5093179;28;20039;-75
2023/04/24 03:00:55;;;;;;;26.92;18.38;;;14.10;99.90;;;;;;5093002;28;20051;-75
2023/04/24 03:03:59;;;;;;;25.95;17.83;;;14.00;99.90;;;;;;5093204;28;20039;-75
2023/04/24 03:07:04;;;;;;;27.55;17.20;;;14.00;99.90;;;;;;5093005;28;20043;-75
2023/04/24 03:10:08;;;;;;;23.40;15.48;;;;;;;;;;5094047;28;20035;-75
2023/04/24 03:13:12;;;;;;;25.92;15.82;;;14.00;99.90;;;;;;5094166;28;20047;-74
2023/04/24 03:16:16;;;;;;;23.73;15.38;;;13.80;99.90;;;;;;5094136;28;20063;-74
2023/04/24 03:19:20;;;;;;;25.95;15.43;;;;;;;;;;5093743;28;20059;-75
2023/04/24 03:22:35;;;;;;;22.80;14.75;;;13.60;99.90;;;;;;5093006;28;20039;-74
2023/04/24 03:25:51;;;;;;;20.10;13.50;;;14.00;99.90;;;;;;5092709;28;20059;-74
2023/04/24 03:28:57;;;;;;;20.67;13.63;;;14.00;99.80;;;;;;5092531;28;20039;-75
2023/04/24 03:32:01;;;;;;;20.42;13.15;;;14.20;99.90;;;;;;5092718;28;20062;-75
2023/04/24 03:35:07;;;;;;;18.50;12.88;;;14.10;99.70;;;;;;5093771;28;20059;-74
2023/04/24 03:38:11;;;;;;;14.95;11.07;;;14.10;99.70;;;;;;5092870;28;20123;-74
2023/04/24 03:41:18;;;;;;;15.48;11.80;;;;;;;;;;5096320;28;20047;-74
2023/04/24 03:44:36;;;;;;;17.38;12.65;;;12.10;99.30;;;;;;5092688;28;20494;-74
2023/04/24 03:47:40;;;;;;;17.70;11.05;;;;;;;;;;5093712;28;20047;-74
2023/04/24 03:50:44;;;;;;;21.35;12.27;;;14.40;99.00;;;;;;5092760;28;20521;-75
2023/04/24 03:53:50;;;;;;;21.85;11.43;;;;;;;;;;5092815;28;20039;-74
2023/04/24 03:56:57;;;;;;;15.73;10.55;;;14.40;98.80;;;;;;5092624;28;20047;-75
2023/04/24 04:00:05;;;;;;;16.23;10.65;;;;;;;;;;5092020;28;20548;-75
2023/04/24 04:03:19;;;;;;;12.10;9.88;;;;;;;;;;5092788;28;20039;-75
2023/04/24 04:06:23;;;;;;;17.48;9.20;;;17.50;98.50;;;;;;5092356;28;20040;-75
2023/04/24 04:09:29;;;;;;;18.60;9.57;;;18.60;98.80;;;;;;5092200;28;20035;-75
2023/04/24 04:12:34;;;;;;;12.00;8.15;;;;;;;;;;5091982;28;20063;-73
2023/04/24 04:15:38;;;;;;;11.63;6.60;;;13.60;97.20;;;;;;5092108;28;20415;-74
2023/04/24 04:18:42;;;;;;;9.48;6.55;;;15.20;97.70;;;;;;5093130;28;20652;-75
2023/04/24 04:21:50;;;;;;;15.63;6.50;;;;;;;;;;5092643;28;20044;-74
2023/04/24 04:25:04;;;;;;;12.10;6.03;;;15.40;97.70;;;;;;5091492;28;20518;-74
2023/04/24 04:28:09;;;;;;;12.55;6.88;;;;;;;;;;5091570;28;20039;-74
2023/04/24 04:31:12;;;;;;;9.60;6.18;;;15.50;97.80;;;;;;5091718;28;20044;-74
2023/04/24 04:34:17;;;;;;;12.52;7.45;;;15.70;97.90;;;;;;5091498;28;20039;-74
2023/04/24 04:37:21;;;;;;;10.15;7.20;;;15.50;98.00;;;;;;5091550;28;20518;-74
2023/04/24 04:40:45;;;;;;;11.30;7.22;;;15.60;97.90;;;;;;5091279;28;20055;-75
2023/04/24 04:43:50;;;;;;;11.20;7.20;;;15.60;98.00;;;;;;5091454;28;20039;-74
2023/04/24 04:46:56;;;;;;;12.48;7.40;;;15.80;98.30;;;;;;5091464;28;20502;-75
2023/04/24 04:50:08;;;;;;;14.63;7.32;;;16.00;98.30;;;;;;5091232;28;20039;-75
2023/04/24 04:53:13;;;;;;;11.52;6.50;;;11.70;97.20;;;;;;5090992;28;20055;-73
2023/04/24 04:56:17;;;;;;;11.52;6.28;;;15.90;98.20;;;;;;5091073;28;20384;-74
2023/04/24 04:59:23;;;;;;;9.38;6.38;;;15.50;98.00;;;;;;5091014;28;20091;-75
2023/04/24 05:02:33;;;;;;;10.65;7.35;;;15.90;98.10;;;;;;5091106;28;20047;-73
2023/04/24 05:05:40;;;;;;;11.07;7.13;;;13.10;97.40;;;;;;5092014;28;20051;-73
2023/04/24 05:08:45;;;;;;;16.52;6.90;;;16.10;98.10;;;;;;5090763;28;20043;-73
2023/04/24 05:12:01;;;;;;;12.60;6.90;;;16.10;98.00;;;;;;5091060;28;20114;-73
2023/04/24 05:15:08;;;;;;;12.23;7.25;;;16.20;97.70;;;;;;5090744;28;20043;-73
2023/04/24 05:18:15;;;;;;;13.85;7.43;;;16.20;97.40;;;;;;5090968;28;20647;-72
2023/04/24 05:21:20;;;;;;;8.90;6.45;;;16.20;97.60;;;;;;5091074;28;20050;-74
2023/04/24 05:24:28;;;;;;;16.35;7.72;;;16.30;97.60;;;;;;5090840;28;20502;-73
2023/04/24 05:27:44;;;;;;;10.80;7.15;;;16.40;97.60;;;;;;5090953;28;20055;-74
2023/04/24 05:30:52;;;;;;;13.43;7.10;;;16.40;97.50;;;;;;5090643;28;20050;-73
2023/04/24 05:33:57;;;;;;;22.58;7.00;;;16.40;97.40;;;;;;5090584;28;20043;-74
2023/04/24 05:37:02;;;;;;;9.57;6.18;;;16.50;97.20;;;;;;5090476;28;20050;-73
2023/04/24 05:40:07;;;;;;;9.85;7.22;;;16.50;97.30;;;;;;5090140;28;20051;-74
2023/04/24 05:43:12;;;;;;;12.80;6.93;;;16.60;97.20;;;;;;5090668;28;20039;-75
2023/04/24 05:46:16;;;;;;;14.98;5.25;;;16.60;96.50;;;;;;5091457;28;20047;-67
2023/04/24 05:49:20;;;;;;;9.80;5.03;;;16.60;95.80;;;;;;5090910;28;20043;-67
2023/04/24 05:52:24;;;;;;;10.80;5.38;;;16.60;95.70;;;;;;5090380;28;20050;-68
2023/04/24 05:55:28;;;;;;;10.70;6.70;;;16.70;95.80;;;;;;5090436;28;20043;-68
2023/04/24 05:58:32;;;;;;;14.43;7.88;;;16.70;96.10;;;;;;5091082;28;20494;-68
2023/04/24 06:01:36;;;;;;;10.43;6.88;;;16.80;96.30;;;;;;5090308;28;20054;-67
2023/04/24 06:04:50;;;;;;;20.80;7.90;;;16.80;96.60;;;;;;5090220;28;20035;-68
2023/04/24 06:07:55;;;;;;;10.05;6.68;;;16.70;96.70;;;;;;5091925;28;20054;-68
2023/04/24 06:11:01;;;;;;;13.82;7.88;;;16.70;96.70;;;;;;5094299;28;20490;-70
2023/04/24 06:14:06;;;;;;;21.08;9.13;;;16.70;96.90;;;;;;5082355;28;20043;-67
2023/04/24 06:17:17;;;;;;;19.52;8.55;;;16.70;96.90;;;;;;5095210;28;20506;-68
2023/04/24 06:20:23;;;;;;;14.27;5.97;;;16.60;96.90;;;;;;5093828;28;20055;-67
2023/04/24 06:23:28;;;;;;;13.75;7.22;;;16.70;96.50;;;;;;5093915;28;20063;-67
2023/04/24 06:26:32;;;;;;;11.60;6.40;;;16.70;96.30;;;;;;5093729;28;20063;-67
2023/04/24 06:29:37;;;;;;;22.45;8.13;;;16.70;96.40;;;;;;5092687;28;20065;-66
2023/04/24 06:32:41;;;;;;;15.02;7.43;;;16.80;96.60;;;;;;5094382;28;20058;-66
2023/04/24 06:35:45;;;;;;;14.75;7.30;;;16.80;96.60;;;;;;5093521;28;20043;-67
2023/04/24 06:38:49;;;;;;;16.13;6.55;;;16.90;96.60;;;;;;5094340;28;20058;-67
2023/04/24 06:41:52;;;;;;;12.68;6.53;;;17.00;96.60;;;;;;5094667;28;20039;-67
2023/04/24 06:44:57;;;;;;;16.17;6.35;;;17.00;96.60;;;;;;5093676;28;20051;-67
2023/04/24 06:48:02;;;;;;;13.90;5.38;;;17.10;96.40;;;;;;5094194;28;20059;-67
2023/04/24 06:51:06;;;;;;;12.75;6.25;;;17.10;96.30;;;;;;5094561;28;20039;-67
2023/04/24 06:54:10;;;;;;;14.55;5.93;;;17.10;96.00;;;;;;5094522;28;20512;-67
2023/04/24 06:57:15;;;;;;;8.13;5.53;;;17.10;95.60;;;;;;5093447;28;20525;-67
2023/04/24 07:00:19;;;;;;;10.82;5.63;;;17.10;95.70;;;;;;5093907;28;20538;-67
2023/04/24 07:03:23;;;;;;;15.25;6.03;;;17.20;95.70;;;;;;5093769;28;20067;-67
2023/04/24 07:06:27;;;;;;;11.27;5.50;;;17.20;95.50;;;;;;5093834;28;20047;-67
2023/04/24 07:09:31;;;;;;;11.38;4.95;;;17.30;95.80;;;;;;5093650;28;20051;-67
2023/04/24 07:12:35;;;;;;;13.23;4.65;;;17.40;95.80;;;;;;5094073;28;20043;-67
2023/04/24 07:15:40;;;;;;;13.13;4.68;;;17.60;95.90;;;;;;5093966;28;20043;-67
2023/04/24 07:18:45;;;;;;;12.55;3.55;;;17.90;95.60;;;;;;5093350;28;20047;-68
2023/04/24 07:21:50;;;;;;;11.55;4.22;;;18.30;95.10;;;;;;5093812;28;20055;-69
2023/04/24 07:24:53;;;;;;;13.82;3.75;;;18.90;94.20;;;;;;5092713;28;20058;-67
2023/04/24 07:27:57;;;;;;;16.40;4.63;;;19.30;93.70;;;;;;5093763;28;20059;-68
2023/04/24 07:31:01;;;;;;;13.32;3.83;;;19.40;93.10;;;;;;5093955;28;20047;-68
2023/04/24 07:34:05;;;;;;;16.38;3.28;;;19.30;93.00;;;;;;5093550;28;20055;-68
2023/04/24 07:37:09;;;;;;;12.48;3.90;;;19.20;92.50;;;;;;5093620;28;20047;-68
2023/04/24 07:40:13;;;;;;;11.20;3.85;;;19.10;93.20;;;;;;5092993;28;20067;-70
2023/04/24 07:43:19;;;;;;;13.95;3.88;;;19.00;93.10;;;;;;5093365;28;20039;-70
2023/04/24 07:46:24;;;;;;;15.60;4.00;;;18.90;93.40;;;;;;5093192;28;20051;-71
2023/04/24 07:49:28;;;;;;;12.25;3.33;;;18.90;93.20;;;;;;5093412;28;20047;-77
2023/04/24 07:52:32;;;;;;;12.20;4.30;;;19.00;93.40;;;;;;5093545;28;20514;-78
2023/04/24 07:55:36;;;;;;;9.10;3.88;;;19.00;93.60;;;;;;5093130;28;20039;-76
2023/04/24 07:58:40;;;;;;;12.15;4.22;;;19.00;93.40;;;;;;5093062;28;20035;-73
2023/04/24 08:01:44;;;;;;;13.00;3.85;;;19.00;93.70;;;;;;5093351;28;20043;-78
2023/04/24 08:04:48;;;;;;;12.60;4.03;;;18.90;94.10;;;;;;5092054;28;20698;-77
2023/04/24 08:07:52;;;;;;;14.32;5.03;;;18.90;94.10;;;;;;5093002;28;20498;-75
2023/04/24 08:10:56;;;;;;;13.48;4.28;;;18.90;94.10;;;;;;5092948;28;20043;-77
2023/04/24 08:14:00;;;;;;;11.05;4.15;;;18.80;94.20;;;;;;5093049;28;20043;-78
2023/04/24 08:17:04;;;;;;;13.15;4.05;;;18.80;94.00;;;;;;5092819;28;20070;-77
2023/04/24 08:20:13;;;;;;;15.43;4.75;;;18.70;94.20;;;;;;5092448;28;20056;-74
2023/04/24 08:23:18;;;;;;;13.68;4.22;;;18.60;94.50;;;;;;5092937;28;20051;-67
2023/04/24 08:26:22;;;;;;;14.73;4.63;;;18.60;94.70;;;;;;5092360;28;20526;-66
2023/04/24 08:29:26;;;;;;;12.48;4.47;;;18.60;95.20;;;;;;5092373;28;20043;-66
2023/04/24 08:32:30;;;;;;;20.70;5.05;;;18.50;95.20;;;;;;5092481;28;20513;-68
2023/04/24 08:35:34;;;;;;;21.80;5.32;;;18.40;95.70;;;;;;5092382;28;20054;-67
2023/04/24 08:38:38;;;;;;;20.83;5.43;;;18.50;95.90;;;;;;5091918;28;20055;-68
2023/04/24 08:41:42;;;;;;;21.80;5.88;;;18.40;96.20;;;;;;5091982;28;20521;-66
2023/04/24 08:44:49;;;;;;;23.88;6.22;;;18.40;96.30;;;;;;5092106;28;20042;-68
2023/04/24 08:47:56;;;;;;;27.83;6.10;;;18.40;96.50;;;;;;5091970;28;20050;-68
2023/04/24 08:51:02;;;;;;;23.65;7.03;;;18.40;96.90;;;;;;5092043;28;20379;-68
2023/04/24 08:54:07;;;;;;;23.38;5.38;;;18.50;97.20;;;;;;5092102;28;20051;-65
2023/04/24 08:57:14;;;;;;;23.10;5.95;;;18.50;97.20;;;;;;5091891;28;20059;-66
2023/04/24 09:00:19;;;;;;;26.25;6.68;;;18.50;97.40;;;;;;5091557;28;20059;-66
2023/04/24 09:03:24;;;;;;;21.40;8.05;;;18.50;97.90;;;;;;5091856;28;20047;-74
2023/04/24 09:06:28;;;;;;;26.90;7.60;;;18.50;99.00;;;;;;5091609;28;20585;-72
2023/04/24 09:09:33;;;;;;;21.15;6.80;;;18.60;99.60;;;;;;5091806;28;20055;-75
2023/04/24 09:12:37;;;;;;;27.35;6.80;;;18.60;99.60;;;;;;5091540;28;20039;-72
2023/04/24 09:15:43;;;;;;;35.13;14.05;;;18.60;99.50;;;;;;5091694;28;20066;-69
2023/04/24 09:18:47;;;;;;;34.33;13.35;;;18.50;98.90;;;;;;5091186;28;20047;-71
2023/04/24 09:21:53;;;;;;;19.50;8.73;;;18.50;99.00;;;;;;5091209;28;20050;-71
2023/04/24 09:25:06;;;;;;;22.05;7.32;;;18.50;99.50;;;;;;5090878;28;20506;-72
2023/04/24 09:28:10;;;;;;;25.92;7.32;;;18.50;99.90;;;;;;5091478;28;20110;-75
2023/04/24 09:31:18;;;;;;;34.95;8.38;;;18.50;99.90;;;;;;5091167;28;20058;-71
2023/04/24 09:34:24;;;;;;;30.40;8.30;;;18.60;99.90;;;;;;5090959;28;20043;-73
2023/04/24 09:37:29;;;;;;;31.35;8.70;;;18.80;99.90;;;;;;5091352;28;20534;-73
2023/04/24 09:40:35;;;;;;;30.42;8.10;;;19.00;99.90;;;;;;5090588;28;20150;-69
2023/04/24 09:43:39;;;;;;;24.95;8.35;;;19.30;99.90;;;;;;5089707;28;20059;-69
2023/04/24 09:46:45;;;;;;;34.55;8.23;;;19.50;99.90;;;;;;5090364;28;20051;-69
2023/04/24 09:49:49;;;;;;;34.38;8.40;;;19.60;99.30;;;;;;5090888;28;20047;-70
2023/04/24 09:53:10;;;;;;;26.45;8.48;;;19.70;98.90;;;;;;5091025;28;20047;-69
2023/04/24 09:56:14;;;;;;;29.13;8.32;;;19.90;99.00;;;;;;5090997;28;20048;-69
2023/04/24 09:59:20;;;;;;;33.25;8.75;;;20.20;98.70;;;;;;5091428;28;20047;-69
2023/04/24 10:02:24;;;;;;;33.20;7.97;;;20.30;98.40;;;;;;5091804;28;20059;-70
2023/04/24 10:05:38;;;;;;;27.50;8.20;;;20.50;98.10;;;;;;5091316;28;20043;-70
2023/04/24 10:08:43;;;;;;;31.27;7.63;;;20.60;97.80;;;;;;5090815;28;20039;-69
2023/04/24 10:11:49;;;;;;;29.15;7.80;;;20.70;97.60;;;;;;5090708;28;20043;-69
2023/04/24 10:14:54;;;;;;;27.23;7.70;;;20.70;97.70;;;;;;5090650;28;20043;-69
2023/04/24 10:17:59;;;;;;;32.83;7.68;;;20.80;97.40;;;;;;5090586;28;20040;-69
2023/04/24 10:21:04;;;;;;;33.42;7.10;;;20.70;97.40;;;;;;5090278;28;20051;-68
2023/04/24 10:24:09;;;;;;;24.23;7.25;;;20.70;97.70;;;;;;5090650;28;20644;-69
2023/04/24 10:27:15;;;;;;;35.78;8.30;;;20.80;97.50;;;;;;5090468;28;20055;-70
2023/04/24 10:30:20;;;;;;;32.35;7.38;;;20.70;97.40;;;;;;5090666;28;20051;-69
2023/04/24 10:33:24;;;;;;;27.00;8.13;;;20.50;97.70;;;;;;5090802;28;20051;-69
2023/04/24 10:36:32;;;;;;;35.88;8.57;;;20.40;98.30;;;;;;5090456;28;20153;-69
2023/04/24 10:39:37;;;;;;;35.78;8.80;;;20.20;98.80;;;;;;5090330;28;20051;-69
2023/04/24 10:42:42;;;;;;;38.08;8.98;;;20.10;99.10;;;;;;5090723;28;20047;-67
2023/04/24 10:46:03;;;;;;;33.70;8.43;;;19.80;99.90;;;;;;5089736;28;20055;-69
2023/04/24 10:49:08;;;;;;;32.28;9.45;;;19.50;99.90;;;;;;5090398;28;20047;-69
2023/04/24 10:52:13;;;;;;;27.40;8.07;;;19.40;99.90;;;;;;5090285;28;20071;-68
2023/04/24 10:55:48;;;;;;;18.55;6.10;;;19.40;99.90;;;;;;5094382;28;20051;-69
2023/04/24 10:58:53;;;;;;;30.67;8.00;;;19.60;99.90;;;;;;5093893;28;20395;-70
2023/04/24 11:01:57;;;;;;;24.63;7.88;;;19.70;99.90;;;;;;5094005;28;20055;-70
2023/04/24 11:05:04;;;;;;;24.08;6.10;;;19.80;99.90;;;;;;5094357;28;20043;-70
2023/04/24 11:08:11;;;;;;;14.10;5.78;;;19.90;99.00;;;;;;5094110;28;20099;-70
2023/04/24 11:11:17;;;;;;;17.73;4.90;;;19.90;97.40;;;;;;5093573;28;20459;-69
2023/04/24 11:14:21;;;;;;;14.70;4.97;;;20.00;96.50;;;;;;5093605;28;20039;-69
2023/04/24 11:17:34;;;;;;;17.63;5.13;;;20.10;96.10;;;;;;5093605;28;20039;-70
2023/04/24 11:20:42;;;;;;;19.02;4.90;;;20.30;95.70;;;;;;5093701;28;20059;-69
2023/04/24 11:23:47;;;;;;;13.15;4.10;;;20.40;94.90;;;;;;5094028;28;20043;-70
2023/04/24 11:26:56;;;;;;;13.27;4.90;;;20.40;94.30;;;;;;5093783;28;20055;-70
2023/04/24 11:30:03;;;;;;;16.45;4.28;;;20.50;94.00;;;;;;5092835;28;20506;-70
2023/04/24 11:33:09;;;;;;;19.25;4.85;;;20.50;93.70;;;;;;5093378;28;20043;-69
2023/04/24 11:36:13;;;;;;;16.77;5.32;;;20.50;93.50;;;;;;5093372;28;20193;-70
2023/04/24 11:39:17;;;;;;;11.50;3.58;;;20.50;93.60;;;;;;5092302;28;20638;-70
2023/04/24 11:42:25;;;;;;;11.70;3.30;;;20.50;93.20;;;;;;5093718;28;20071;-69
2023/04/24 11:45:30;;;;;;;19.30;3.95;;;20.50;92.70;;;;;;5093519;28;20598;-69
2023/04/24 11:48:36;;;;;;;11.35;3.80;;;20.60;92.70;;;;;;5093199;28;20063;-69
2023/04/24 11:51:40;;;;;;;9.40;3.22;;;20.80;92.40;;;;;;5093166;28;20043;-70
2023/04/24 11:54:50;;;;;;;10.65;3.45;;;20.80;92.30;;;;;;5093337;28;20122;-69
2023/04/24 11:57:57;;;;;;;14.40;3.33;;;20.80;92.30;;;;;;5092947;28;20055;-69
2023/04/24 12:01:01;;;;;;;11.38;3.75;;;20.90;92.50;;;;;;5092771;28;20051;-70
2023/04/24 12:04:06;;;;;;;10.32;3.40;;;20.90;92.50;;;;;;5092778;28;20043;-68
2023/04/24 12:07:09;;;;;;;13.05;3.60;;;21.00;92.30;;;;;;5092673;28;20503;-69
2023/04/24 12:10:14;;;;;;;9.77;3.40;;;21.00;91.60;;;;;;5092524;28;20039;-70
2023/04/24 12:13:18;;;;;;;18.05;3.88;;;21.00;91.50;;;;;;5092536;28;20051;-70
2023/04/24 12:16:25;;;;;;;11.65;3.25;;;21.00;91.40;;;;;;5092530;28;20039;-69
2023/04/24 12:19:29;;;;;;;8.85;3.33;;;21.00;91.70;;;;;;5092358;28;20039;-70
2023/04/24 12:22:54;;;;;;;11.60;3.42;;;21.00;92.00;;;;;;5091729;28;20054;-69
2023/04/24 12:26:01;;;;;;;9.23;2.85;;;21.00;91.90;;;;;;5090723;28;20391;-69
2023/04/24 12:29:07;;;;;;;16.27;3.05;;;21.10;91.20;;;;;;5090997;28;20039;-69
2023/04/24 12:32:17;;;;;;;12.73;3.58;;;21.20;90.90;;;;;;5092037;28;20047;-69
2023/04/24 12:35:23;;;;;;;8.43;2.92;;;21.30;90.80;;;;;;5091931;28;20541;-69
2023/04/24 12:38:30;;;;;;;13.13;3.33;;;21.40;90.60;;;;;;5092065;28;20048;-70
2023/04/24 12:41:33;;;;;;;16.23;3.60;;;21.50;90.80;;;;;;5091949;28;20055;-69
2023/04/24 12:44:37;;;;;;;13.27;3.25;;;21.50;90.30;;;;;;5092223;28;20035;-69
2023/04/24 12:47:43;;;;;;;9.77;3.15;;;21.50;90.00;;;;;;5092293;28;20537;-70
2023/04/24 12:50:47;;;;;;;15.73;3.50;;;21.40;89.10;;;;;;5092105;28;20106;-70
2023/04/24 12:53:51;;;;;;;9.02;2.53;;;21.30;89.30;;;;;;5092041;28;20047;-69
2023/04/24 12:56:56;;;;;;;5.13;1.65;;;21.30;87.90;;;;;;5091835;28;20383;-70
2023/04/24 13:00:00;;;;;;;11.50;2.55;;;21.30;86.80;;;;;;5092046;28;20050;-69
2023/04/24 13:03:04;;;;;;;13.38;3.25;;;21.30;86.60;;;;;;5091898;28;20059;-69
2023/04/24 13:06:09;;;;;;;14.38;3.08;;;21.40;87.00;;;;;;5091852;28;20102;-69
2023/04/24 13:09:13;;;;;;;6.57;2.20;;;21.30;85.90;;;;;;5091904;28;20059;-70
2023/04/24 13:12:17;;;;;;;8.73;2.17;;;21.30;86.80;;;;;;5091611;28;20067;-69
2023/04/24 13:15:21;;;;;;;8.57;2.40;;;21.40;87.30;;;;;;5091538;28;20059;-70
2023/04/24 13:18:25;;;;;;;5.68;2.55;;;21.40;86.70;;;;;;5091479;28;20046;-69
2023/04/24 13:21:30;;;;;;;15.20;2.83;;;21.40;87.10;;;;;;5091280;28;20071;-70
2023/04/24 13:24:34;;;;;;;7.95;2.45;;;21.40;86.90;;;;;;5091165;28;20054;-70
2023/04/24 13:27:41;;;;;;;8.38;2.15;;;21.40;87.10;;;;;;5091201;28;20039;-69
2023/04/24 13:30:45;;;;;;;8.88;2.20;;;21.40;85.50;;;;;;5091276;28;20494;-69
2023/04/24 13:33:49;;;;;;;7.63;2.42;;;21.40;85.70;;;;;;5091134;28;20571;-70
2023/04/24 13:36:55;;;;;;;5.65;2.38;;;21.40;86.10;;;;;;5091059;28;20055;-70
2023/04/24 13:39:59;;;;;;;9.70;2.90;;;21.30;86.40;;;;;;5090809;28;20403;-70
2023/04/24 13:43:03;;;;;;;11.15;2.60;;;21.20;86.70;;;;;;5091072;28;20383;-70
2023/04/24 13:46:06;;;;;;;8.00;2.53;;;21.10;87.10;;;;;;5090993;28;20047;-69
2023/04/24 13:49:12;;;;;;;9.93;2.60;;;21.10;87.90;;;;;;5090479;28;20042;-69
2023/04/24 13:52:16;;;;;;;7.75;2.65;;;21.00;87.90;;;;;;5090758;28;20063;-68
2023/04/24 13:55:20;;;;;;;6.25;1.92;;;21.00;87.90;;;;;;5090755;28;20055;-70
2023/04/24 13:58:24;;;;;;;8.05;2.28;;;21.00;88.30;;;;;;5091550;28;20054;-70
2023/04/24 14:01:28;;;;;;;9.65;2.40;;;21.00;87.60;;;;;;5090697;28;20051;-70
2023/04/24 14:04:32;;;;;;;19.60;3.00;;;20.90;87.00;;;;;;5090743;28;20043;-69
2023/04/24 14:07:36;;;;;;;10.13;2.40;;;20.80;87.40;;;;;;5090733;28;20059;-69
2023/04/24 14:10:40;;;;;;;11.95;3.38;;;20.80;87.70;;;;;;5090908;28;20368;-70
2023/04/24 14:13:45;;;;;;;11.30;2.85;;;20.80;88.00;;;;;;5090523;28;20059;-69
2023/04/24 14:16:49;;;;;;;11.88;2.60;;;20.70;87.40;;;;;;5090837;28;20387;-66
2023/04/24 14:19:56;;;;;;;5.30;2.25;;;20.70;87.50;;;;;;5090618;28;20071;-65
2023/04/24 14:23:00;;;;;;;5.03;1.73;;;20.70;87.90;;;;;;5090501;28;20055;-67
2023/04/24 14:26:04;;;;;;;8.23;2.50;;;20.60;88.20;;;;;;5090353;28;20066;-67
2023/04/24 14:29:08;;;;;;;11.70;2.80;;;20.60;88.30;;;;;;5092704;28;20050;-66
2023/04/24 14:32:14;;;;;;;8.40;2.13;;;20.60;88.60;;;;;;5094839;28;20055;-65
2023/04/24 14:35:18;;;;;;;7.05;1.88;;;20.60;88.60;;;;;;5094422;28;20529;-66
2023/04/24 14:38:22;;;;;;;13.55;2.58;;;20.60;88.20;;;;;;5093334;28;20039;-64
2023/04/24 14:41:26;;;;;;;10.50;2.50;;;20.50;87.10;;;;;;5094183;28;20058;-66
2023/04/24 14:44:30;;;;;;;5.43;2.33;;;20.50;87.30;;;;;;5093434;28;20047;-66
2023/04/24 14:47:36;;;;;;;4.70;2.00;;;20.50;87.90;;;;;;5093964;28;20498;-65
2023/04/24 14:50:40;;;;;;;7.53;2.55;;;20.50;87.90;;;;;;5094414;28;20043;-65
2023/04/24 14:53:47;;;;;;;5.28;1.90;;;20.60;88.20;;;;;;5094049;28;20047;-66
2023/04/24 14:56:51;;;;;;;10.57;2.80;;;20.60;87.10;;;;;;5094236;28;20035;-66
2023/04/24 14:59:55;;;;;;;11.80;3.10;;;20.50;87.30;;;;;;5094083;28;20047;-66
2023/04/24 15:03:00;;;;;;;14.02;2.80;;;20.50;87.70;;;;;;5094092;28;20051;-66
2023/04/24 15:06:04;;;;;;;15.60;3.05;;;20.50;88.10;;;;;;5093793;28;20039;-66
2023/04/24 15:09:08;;;;;;;11.63;2.78;;;20.50;88.40;;;;;;5093669;28;20043;-65
2023/04/24 15:12:12;;;;;;;12.68;2.40;;;20.50;88.50;;;;;;5093621;28;20046;-65
2023/04/24 15:15:17;;;;;;;8.65;2.20;;;20.50;89.00;;;;;;5093594;28;20396;-66
2023/04/24 15:18:21;;;;;;;17.98;2.53;;;20.50;88.90;;;;;;5093510;28;20047;-66
2023/04/24 15:21:25;;;;;;;17.73;3.20;;;20.40;89.10;;;;;;5092751;28;20047;-67
2023/04/24 15:24:29;;;;;;;10.75;3.58;;;20.50;89.50;;;;;;5093225;28;20031;-67
2023/04/24 15:27:44;;;;;;;10.48;2.70;;;20.50;90.40;;;;;;5093654;28;20039;-67
2023/04/24 15:30:48;;;;;;;15.63;3.13;;;20.50;90.40;;;;;;5093443;28;20043;-68
2023/04/24 15:33:52;;;;;;;17.70;4.65;;;20.50;90.40;;;;;;5093236;28;20047;-70
2023/04/24 15:36:56;;;;;;;13.32;3.58;;;20.60;91.50;;;;;;5093277;28;20035;-72
2023/04/24 15:40:00;;;;;;;13.02;3.35;;;20.60;92.00;;;;;;5091752;28;20106;-70
2023/04/24 15:43:04;;;;;;;27.90;4.55;;;20.50;92.40;;;;;;5093329;28;20047;-71
2023/04/24 15:46:10;;;;;;;17.10;4.32;;;20.40;92.90;;;;;;5093136;28;20047;-72
2023/04/24 15:49:14;;;;;;;14.10;4.70;;;20.40;93.10;;;;;;5092205;28;20043;-72
2023/04/24 15:52:18;;;;;;;14.88;4.47;;;20.40;93.30;;;;;;5092845;28;20047;-72
2023/04/24 15:55:24;;;;;;;16.75;4.93;;;20.40;93.60;;;;;;5093333;28;20039;-71
2023/04/24 15:58:28;;;;;;;20.48;4.63;;;20.30;93.70;;;;;;5092043;28;20047;-70
2023/04/24 16:01:32;;;;;;;12.93;3.85;;;20.30;93.40;;;;;;5092961;28;20055;-69
2023/04/24 16:04:36;;;;;;;14.27;4.18;;;20.20;93.40;;;;;;5093060;28;20043;-68